Share

Ashton, SD

12:07 PM CDT on April 23, 2014 (GMT -0500)
Aberdeen Regional (KABR) Elev 1299 ft | 45.44 °N, 98.41 °W | Change Station
Active Advisory: Wind AdvisoryFire Weather Watch

Current weather conditions updated 14 minutes ago

Partly Cloudy
Partly Cloudy
48 °F
Feels Like 48 °F
N
25
Wind Variable Wind from SE
Gusts 43 mph
Sunrise 6:35 AM
Sunset 8:29 PM
Moon Waning Crescent

Today is forecast to be nearly the same temperature as yesterday. Showers possible early tonight.

Pressure 29.68 in
Visibility 10.0 miles
Clouds Few 11000 ft
Dew Point 38 °F
Humidity 68%
Rainfall 0.01 in
Snow Depth Not available.
UV 7 out of 16
Pollen 7.60 out of 12
Air Quality Not available.
Flu Activity Sporadic
METAR KABR 231653Z AUTO 14022G37KT 10SM FEW110 09/03 A2967 RMK AO2 PK WND 14042/1633 RAB33E43 SLP050 P0000 T00890033

More Conditions Fewer Conditions

Pressure 29.68 in
Visibility 10.0 miles
Clouds Few 11000 ft
Dew Point 38 °F
Humidity 68%
Rainfall 0.01 in
Snow Depth Not available.
UV 7 out of 16
Pollen 7.60 out of 12
Air Quality Not available.
Flu Activity Sporadic
METAR KABR 231653Z AUTO 14022G37KT 10SM FEW110 09/03 A2967 RMK AO2 PK WND 14042/1633 RAB33E43 SLP050 P0000 T00890033

More Conditions Fewer Conditions

10-Day Weather Forecast

Almanac

Astronomy

Apr. 23, 2014 Rise Set
Actual Time 6:35 AM CDT 8:29 PM CDT
Civil Twilight 6:04 AM CDT 9:01 PM CDT
Nautical Twilight 5:25 AM CDT 9:39 PM CDT
Astronomical Twilight 4:43 AM CDT 10:22 PM CDT
Moon 3:24 AM CDT 2:24 PM CDT
Length of Visible Light 14h 57m
Length of Day
13h 54m
Tomorrow will be 2m 52s longer.
Waning Crescent, 34% of the Moon is Illuminated
Today
Waning Crescent
Apr 29
New
May 6
First Quarter
May 14
Full
May 21
Last Quarter

Today's Extremes

State Highs State Lows

Community

  • Stunning Sunrise
    Stunning Sunrise
  • spring flowers
    spring flowers
  • Earth Day Spectrum Ove' Blue
    Earth Day Spectrum Ove' Blue
  • BARN B&W
    BARN B&W
  • April Sunset
    April Sunset

WunderPhotos

Upload Photos

1,704,338 photos uploaded!

WunderBlogs® & News

Nearby

Snow Depth

Station Depth Elevation
North Rapid Creek 11 in 6130 ft
Blind Park 12 in 6890 ft

Coastal Water Temperatures

Place Temperature
No Stations Reporting

Earthquake Activity

City Distance Mag. Time & Date
No recent earthquake activity has been reported nearby.
Minimum magnitude displayed is 2.5.

Nearby Weather Stations

There are no personal weather stations in this area.

What do you think?

We're not finished. Please let us know what you like, what you don't like, and what you are still missing.